Forest fire From: 19-07-2018 17:00 Until: 20-07-2018 16:00 warning for: Forest fire Level: Yellow info button
suomi:
Metsäpalovaroitus on voimassa.

svenska:
Varning för skogsbrand gäller.

english:
A forest fire warning is in force. 

Extreme high temperature From: 19-07-2018 17:00 Until: 23:00 warning for: Extreme high temperature Level: Yellow info button
suomi:
Hellevaroitus: Lähivuorokauden aikana on odotettavissa tukalaa hellettä.

svenska:
Varning för värmebölja: Under det närmaste dygnet är den svåra hettan att vänta.

english:
Heat wave warning: Warm weather is expected during the coming 24 hours. 


Thunder radar more information blitzortung!


Löydät sääaseman tiedot myös:

European Weather Network

Finland Weather Exchange

Weather Underground

AWEKAS



Weather Underground säähistoriasivu

Päivittäin yhteenveto Tammikuu 23, 2017 Yksiköt:  Metriset    Englantilaiset   Molemmat
« Edellinen Päivä
Seuraava Päivä »
Päivittäin Viikoittain Kuukausittain Vuosittain Mukautettu
  Korkea: Matala: Keskiarvo:
Lämpötila: -17.8 °C -19.1 °C -17.6 °C
Kastepiste: -17.8 °C -20 °C -18.2 °C
Kosteus: Humidity % 89 % 91 %
Tuulen nopeus: 0 km/h 0 km/h 0 km/h
Tuulenpuuska: 0 km/h - -
Tuuli:- - North
Ilmanpaine: 0 hPa 33890.5 hPa -
Sade: 0 mm    
Historical Graphs
 
 
Taulukkotiedot Tammikuu 23, 2017
Aika Lämpötila Kastepiste Ilmanpaine Tuuli Tuulen nopeus Tuulenpuuska Kosteus Sademäärä (tunneittain)
-17.8 °C -17.8 °C 0 hPa Calm     Humidity % 0 mm
00:00 -17.2 °C -17.8 °C 34015.8 hPa Calm     92 % 0 mm
00:15 -17.2 °C -17.7 °C 34005.6 hPa Calm     93 % 0 mm
00:30 -17.2 °C -17.8 °C 34005.6 hPa Calm     92 % 0 mm
00:45 -17.1 °C -17.7 °C 34005.6 hPa Calm     93 % 0 mm
01:00 -17.1 °C -17.6 °C 33992.1 hPa Calm     94 % 0 mm
01:15 -17.1 °C -17.6 °C 33981.9 hPa Calm     94 % 0 mm
01:30 -17.1 °C -17.5 °C 33981.9 hPa Calm     95 % 0 mm
01:45 -17 °C -17.4 °C 33981.9 hPa Calm     95 % 0 mm
02:00 -16.8 °C -17.2 °C 33981.9 hPa Calm     95 % 0 mm
02:15 -16.8 °C -17.2 °C 33971.7 hPa Calm     95 % 0 mm
02:30 -16.8 °C -17.2 °C 33971.7 hPa Calm     95 % 0 mm
02:45 -16.8 °C -17.2 °C 33958.2 hPa Calm     95 % 0 mm
03:00 -16.9 °C -17.3 °C 33948 hPa Calm     95 % 0 mm
03:15 -16.9 °C -17.3 °C 33948 hPa Calm     96 % 0 mm
03:30 -16.9 °C -17.3 °C 33948 hPa Calm     96 % 0 mm
03:45 -16.9 °C -17.2 °C 33948 hPa Calm     96 % 0 mm
04:00 -16.7 °C -17 °C 33948 hPa Calm     96 % 0 mm
04:15 -16.6 °C -16.9 °C 33937.9 hPa Calm     96 % 0 mm
04:30 -16.6 °C -17.1 °C 33937.9 hPa Calm     95 % 0 mm
04:45 -16.7 °C -17.1 °C 33924.3 hPa Calm     95 % 0 mm
05:00 -16.6 °C -17 °C 33914.2 hPa Calm     95 % 0 mm
05:15 -16.6 °C -17.1 °C 33924.3 hPa Calm     94 % 0 mm
05:30 -16.5 °C -17 °C 33914.2 hPa Calm     94 % 0 mm
05:45 -16.4 °C -16.9 °C 33900.6 hPa Calm     93 % 0 mm
06:00 -16.4 °C -17.1 °C 33900.6 hPa Calm     92 % 0 mm
06:15 -16.3 °C -17.1 °C 33900.6 hPa Calm     91 % 0 mm
06:30 -16.2 °C -16.9 °C 33900.6 hPa Calm     90 % 0 mm
06:45 -16.2 °C -17.1 °C 33900.6 hPa Calm     89 % 0 mm
07:00 -16.3 °C -17.2 °C 33900.6 hPa Calm     89 % 0 mm
07:15 -16.3 °C -17.3 °C 33900.6 hPa Calm     89 % 0 mm
07:30 -16.4 °C -17.2 °C 33900.6 hPa Calm     90 % 0 mm
07:45 -16.5 °C -17.2 °C 33900.6 hPa Calm     91 % 0 mm
08:00 -16.5 °C -17.2 °C 33900.6 hPa Calm     91 % 0 mm
08:15 -16.6 °C -17.3 °C 33890.5 hPa Calm     92 % 0 mm
08:30 -16.7 °C -17.4 °C 33890.5 hPa Calm     92 % 0 mm
08:45 -16.8 °C -17.3 °C 33900.6 hPa Calm     93 % 0 mm
09:00 -16.9 °C -17.4 °C 33900.6 hPa Calm     93 % 0 mm
09:15 -16.8 °C -17.4 °C 33900.6 hPa Calm     93 % 0 mm
09:30 -16.9 °C -17.4 °C 33900.6 hPa Calm     93 % 0 mm
09:45 -16.9 °C -17.4 °C 33900.6 hPa Calm     93 % 0 mm
10:00 -16.9 °C -17.5 °C 33900.6 hPa Calm     93 % 0 mm
10:15 -17.1 °C -17.6 °C 33900.6 hPa Calm     93 % 0 mm
10:30 -17.1 °C -17.6 °C 33914.2 hPa Calm     93 % 0 mm
10:45 -17 °C -17.6 °C 33914.2 hPa Calm     93 % 0 mm
11:00 -16.9 °C -17.6 °C 33914.2 hPa Calm     92 % 0 mm
11:15 -17 °C -17.7 °C 33924.3 hPa Calm     91 % 0 mm
11:30 -17 °C -17.7 °C 33937.9 hPa Calm     91 % 0 mm
11:45 -17.1 °C -17.8 °C 33937.9 hPa Calm     91 % 0 mm
12:00 -17.2 °C -17.8 °C 33948 hPa Calm     92 % 0 mm
12:15 -17.2 °C -17.8 °C 33958.2 hPa Calm     92 % 0 mm
12:30 -17.2 °C -17.8 °C 33958.2 hPa Calm     92 % 0 mm
12:45 -17.1 °C -17.8 °C 33971.7 hPa Calm     92 % 0 mm
13:00 -17.1 °C -17.7 °C 33971.7 hPa Calm     92 % 0 mm
13:15 -17.1 °C -17.8 °C 33981.9 hPa Calm     92 % 0 mm
13:30 -17.3 °C -17.9 °C 33992.1 hPa Calm     92 % 0 mm
13:45 -17.3 °C -18 °C 33992.1 hPa Calm     92 % 0 mm
14:00 -17.4 °C -18.1 °C 34005.6 hPa Calm     92 % 0 mm
14:15 -17.6 °C -18.2 °C 34015.8 hPa Calm     92 % 0 mm
14:30 -17.6 °C -18.2 °C 34029.3 hPa Calm     92 % 0 mm
14:45 -17.8 °C -18.4 °C 34039.5 hPa Calm     92 % 0 mm
15:00 -17.9 °C -18.6 °C 34049.6 hPa Calm     92 % 0 mm
15:15 -18 °C -18.7 °C 34049.6 hPa Calm     92 % 0 mm
15:30 -18.1 °C -18.7 °C 34063.2 hPa Calm     92 % 0 mm
15:45 -18.2 °C -18.8 °C 34086.9 hPa Calm     92 % 0 mm
16:00 -18.3 °C -19.1 °C 34097 hPa Calm     91 % 0 mm
16:15 -18.4 °C -19.1 °C 34097 hPa Calm     91 % 0 mm
16:30 -18.6 °C -19.3 °C 34107.2 hPa Calm     91 % 0 mm
16:45 -18.7 °C -19.3 °C 34130.9 hPa Calm     92 % 0 mm
17:00 -18.7 °C -19.3 °C 34130.9 hPa Calm     92 % 0 mm
17:15 -18.7 °C -19.4 °C 34144.4 hPa Calm     91 % 0 mm
17:30 -18.8 °C -19.5 °C 34154.6 hPa Calm     91 % 0 mm
17:45 -18.8 °C -19.4 °C 34164.7 hPa Calm     92 % 0 mm
18:00 -18.8 °C -19.4 °C 34164.7 hPa Calm     92 % 0 mm
18:15 -18.8 °C -19.4 °C 34178.3 hPa Calm     92 % 0 mm
18:30 -18.8 °C -19.4 °C 34188.4 hPa Calm     92 % 0 mm
18:45 -18.7 °C -19.4 °C 34198.6 hPa Calm     92 % 0 mm
19:00 -18.8 °C -19.4 °C 34198.6 hPa Calm     92 % 0 mm
19:15 -18.8 °C -19.5 °C 34198.6 hPa Calm     91 % 0 mm
19:30 -18.8 °C -19.5 °C 34198.6 hPa Calm     91 % 0 mm
19:45 -18.8 °C -19.5 °C 34212.1 hPa Calm     91 % 0 mm
20:00 -18.8 °C -19.6 °C 34222.3 hPa Calm     90 % 0 mm
20:15 -18.9 °C -19.7 °C 34235.8 hPa Calm     90 % 0 mm
20:30 -18.9 °C -19.7 °C 34246 hPa Calm     90 % 0 mm
20:45 -19 °C -19.9 °C 34256.2 hPa Calm     89 % 0 mm
21:00 -19.1 °C -19.9 °C 34269.7 hPa Calm     89 % 0 mm
21:15 -19.1 °C -19.8 °C 34279.9 hPa Calm     90 % 0 mm
21:30 -19.1 °C -19.8 °C 34293.4 hPa Calm     90 % 0 mm
21:45 -19.1 °C -19.7 °C 34303.6 hPa Calm     91 % 0 mm
22:00 -19.1 °C -19.9 °C 34303.6 hPa Calm     90 % 0 mm
22:15 -19.1 °C -19.9 °C 34313.7 hPa Calm     90 % 0 mm
22:30 -19.1 °C -19.8 °C 34313.7 hPa Calm     91 % 0 mm
22:45 -19.1 °C -19.9 °C 34313.7 hPa Calm     90 % 0 mm
23:00 -19.1 °C -19.9 °C 34327.3 hPa Calm     90 % 0 mm
23:15 -19.1 °C -20 °C 34337.4 hPa Calm     89 % 0 mm
23:30 -19.1 °C -20 °C 34337.4 hPa Calm     89 % 0 mm
23:45 -19.1 °C -20 °C 34347.6 hPa Calm     89 % 0 mm
Esan sääasema
Terveisin Weather Underground - 2.75 mb

Alkuperäinen skripti  Jim McMurry - jmcmurry@mwt.net Sovitettu myös templatelle  Wim van der Kuil - Leuven-Template.eu

Laitteet joita käytämme:

Sääasema
Davis VP2

Sääasemaohjelma
Cumulus

Sääaseman tietokone
Asus EeePC

Palveluntarjoaja
Suncomet

Davis VP2

Cumulus

Asus EeePC

Suncomet